Time;durP1;ratioP1;P1;durP2;ratioP2;P2;SDS_P1;SDS_P2;PMS_P1;PMS_P2;Temp;Humidity;BMP_temperature;BMP_pressure;BME280_temperature;BME280_humidity;BME280_pressure;Samples;Min_cycle;Max_cycle;Signal;HPM_P1;HPM_P2
2023/07/11 00:00:57;;;;;;;13.37;12.27;;;;;;;19.18;100.00;97233.41;4981262;28;20206;-63
2023/07/11 00:03:25;;;;;;;13.63;12.27;;;;;;;18.93;100.00;97196.88;4973071;28;20237;-62
2023/07/11 00:05:58;;;;;;;12.83;11.83;;;;;;;19.04;100.00;97232.84;4965176;28;20242;-63
2023/07/11 00:08:26;;;;;;;13.27;12.00;;;;;;;18.93;100.00;97229.09;4970345;28;20197;-63
2023/07/11 00:10:55;;;;;;;13.47;12.37;;;;;;;18.79;100.00;97199.03;4977478;28;20218;-64
2023/07/11 00:13:23;;;;;;;11.67;10.67;;;;;;;19.03;100.00;97218.59;4975517;28;20234;-63
2023/07/11 00:16:01;;;;;;;13.17;12.10;;;;;;;18.97;100.00;97227.56;4968973;28;20209;-63
2023/07/11 00:18:29;;;;;;;11.70;10.80;;;;;;;18.97;100.00;97214.16;4977995;28;20202;-63
2023/07/11 00:20:56;;;;;;;12.37;11.23;;;;;;;19.02;100.00;97208.91;4970557;28;20334;-64
2023/07/11 00:23:25;;;;;;;12.80;11.90;;;;;;;19.02;100.00;97214.28;4977848;28;20206;-63
2023/07/11 00:25:53;;;;;;;12.10;11.30;;;;;;;19.05;100.00;97237.97;4976761;28;20234;-64
2023/07/11 00:28:21;;;;;;;12.93;11.80;;;;;;;18.77;100.00;97203.81;4989675;28;20429;-65
2023/07/11 00:30:49;;;;;;;13.07;11.93;;;;;;;18.70;100.00;97209.28;4974541;28;20230;-64
2023/07/11 00:33:18;;;;;;;13.47;12.07;;;;;;;18.72;100.00;97217.13;4981135;28;20270;-63
2023/07/11 00:35:47;;;;;;;12.37;11.37;;;;;;;18.56;100.00;97203.38;4974995;28;20281;-64
2023/07/11 00:38:15;;;;;;;12.53;11.43;;;;;;;18.55;100.00;97201.72;4981769;28;20202;-63
2023/07/11 00:40:44;;;;;;;13.07;12.07;;;;;;;18.68;100.00;97227.50;4982791;28;20198;-63
2023/07/11 00:43:13;;;;;;;13.23;12.03;;;;;;;18.64;100.00;97227.16;4985212;28;20257;-64
2023/07/11 00:46:06;;;;;;;13.00;11.90;;;;;;;18.56;100.00;97227.53;4975826;28;20206;-63
2023/07/11 00:48:38;;;;;;;12.73;11.70;;;;;;;18.39;100.00;97205.97;4975390;28;20229;-63
2023/07/11 00:51:08;;;;;;;13.73;12.43;;;;;;;18.30;100.00;97205.50;4973780;28;20218;-64
2023/07/11 00:53:38;;;;;;;14.40;13.23;;;;;;;18.42;100.00;97218.06;4975661;28;20222;-63
2023/07/11 00:56:07;;;;;;;14.00;12.87;;;;;;;18.37;100.00;97224.13;4965147;28;20206;-64
2023/07/11 00:58:37;;;;;;;13.97;12.73;;;;;;;18.19;100.00;97212.47;4964562;28;20205;-64
2023/07/11 01:01:05;;;;;;;14.80;13.50;;;;;;;17.97;100.00;97195.28;4972906;28;20210;-64
2023/07/11 01:03:33;;;;;;;14.07;13.03;;;;;;;17.99;100.00;97209.25;4966405;28;20305;-63
2023/07/11 01:06:02;;;;;;;14.47;13.37;;;;;;;17.91;100.00;97219.28;4966437;28;20218;-64
2023/07/11 01:08:30;;;;;;;14.63;13.33;;;;;;;17.63;100.00;97177.06;4976641;28;20281;-62
2023/07/11 01:10:57;;;;;;;14.63;13.33;;;;;;;17.84;100.00;97210.53;4971426;28;20249;-63
2023/07/11 01:13:25;;;;;;;14.03;12.90;;;;;;;17.60;100.00;97183.69;4974631;28;20301;-63
2023/07/11 01:15:52;;;;;;;14.77;13.67;;;;;;;17.70;100.00;97207.25;4969969;28;20808;-64
2023/07/11 01:18:20;;;;;;;15.00;13.70;;;;;;;17.72;100.00;97204.34;4966850;28;20234;-64
2023/07/11 01:20:48;;;;;;;14.97;13.57;;;;;;;17.67;100.00;97204.22;4962732;28;20237;-63
2023/07/11 01:23:17;;;;;;;14.47;13.27;;;;;;;17.62;100.00;97204.91;4966777;28;20270;-64
2023/07/11 01:25:45;;;;;;;13.50;12.40;;;;;;;17.59;100.00;97200.78;4961203;28;20238;-63
2023/07/11 01:28:13;;;;;;;14.57;13.20;;;;;;;17.55;100.00;97188.91;4964531;28;20761;-62
2023/07/11 01:30:41;;;;;;;13.83;12.60;;;;;;;17.52;100.00;97194.72;4965644;28;20756;-64
2023/07/11 01:33:08;;;;;;;15.30;13.77;;;;;;;17.53;100.00;97196.34;4968595;28;20272;-63
2023/07/11 01:35:36;;;;;;;14.30;12.93;;;;;;;17.52;100.00;97193.94;4962069;28;20275;-63
2023/07/11 01:38:04;;;;;;;14.80;13.57;;;;;;;17.45;100.00;97183.28;4962797;28;20774;-63
2023/07/11 01:40:33;;;;;;;15.07;13.73;;;;;;;17.40;100.00;97178.63;4969893;28;20222;-62
2023/07/11 01:43:01;;;;;;;14.30;13.10;;;;;;;17.41;100.00;97187.47;4970656;28;20630;-64
2023/07/11 01:45:29;;;;;;;13.90;12.80;;;;;;;17.38;100.00;97183.38;4965322;28;20233;-65
2023/07/11 01:47:56;;;;;;;15.43;14.07;;;;;;;17.43;100.00;97185.38;4968514;28;20206;-64
2023/07/11 01:50:24;;;;;;;13.87;12.73;;;;;;;17.41;100.00;97188.28;4969437;28;20260;-63
2023/07/11 01:52:51;;;;;;;13.27;12.00;;;;;;;17.38;100.00;97186.06;4968014;28;20235;-62
2023/07/11 01:55:19;;;;;;;13.40;12.40;;;;;;;17.36;100.00;97180.13;4974013;28;20301;-63
2023/07/11 01:57:48;;;;;;;13.73;12.73;;;;;;;17.29;100.00;97185.59;4971142;28;20202;-62
2023/07/11 02:00:16;;;;;;;14.47;13.37;;;;;;;17.28;100.00;97173.25;4981247;28;20271;-63
2023/07/11 02:02:44;;;;;;;15.03;13.73;;;;;;;17.20;100.00;97171.69;4978113;28;20234;-63
2023/07/11 02:05:12;;;;;;;13.63;12.53;;;;;;;17.21;100.00;97178.69;4974073;28;20725;-64
2023/07/11 02:07:39;;;;;;;13.87;12.77;;;;;;;17.02;100.00;97156.50;4974997;28;20220;-63
2023/07/11 02:10:08;;;;;;;14.20;13.00;;;;;;;17.12;100.00;97176.53;4980898;28;20294;-62
2023/07/11 02:12:36;;;;;;;14.60;13.33;;;;;;;17.06;100.00;97170.25;4982805;28;20206;-63
2023/07/11 02:15:06;;;;;;;14.17;12.93;;;;;;;17.05;100.00;97165.94;4980036;28;20241;-64
2023/07/11 02:17:33;;;;;;;14.10;12.87;;;;;;;16.94;100.00;97154.09;4971980;28;20213;-62
2023/07/11 02:20:02;;;;;;;15.43;14.17;;;;;;;17.02;100.00;97169.03;4974843;28;20202;-63
2023/07/11 02:22:29;;;;;;;14.47;13.33;;;;;;;17.02;100.00;97169.03;4973987;28;20923;-64
2023/07/11 02:24:57;;;;;;;15.90;14.63;;;;;;;17.07;100.00;97172.69;4979648;28;20210;-64
2023/07/11 02:27:25;;;;;;;14.23;13.17;;;;;;;17.03;100.00;97160.78;4980332;28;20511;-63
2023/07/11 02:29:52;;;;;;;15.70;14.33;;;;;;;17.09;100.00;97166.28;4972182;28;20217;-64
2023/07/11 02:32:21;;;;;;;14.87;13.67;;;;;;;16.98;100.00;97149.97;4977395;28;20203;-64
2023/07/11 02:34:49;;;;;;;14.73;13.63;;;;;;;17.02;100.00;97161.84;4978752;28;20260;-63
2023/07/11 02:37:17;;;;;;;14.67;13.47;;;;;;;17.02;100.00;97163.69;4973303;28;20237;-63
2023/07/11 02:39:45;;;;;;;15.00;13.77;;;;;;;16.98;100.00;97157.16;4970388;28;20292;-62
2023/07/11 02:42:13;;;;;;;15.30;14.10;;;;;;;16.98;100.00;97166.00;4967902;28;20230;-64
2023/07/11 02:44:40;;;;;;;15.27;14.07;;;;;;;16.95;100.00;97162.94;4963265;28;20313;-63
2023/07/11 02:47:08;;;;;;;15.90;14.50;;;;;;;16.92;100.00;97161.53;4955435;28;20202;-65
2023/07/11 02:49:38;;;;;;;16.17;14.93;;;;;;;16.88;100.00;97157.69;4958729;28;20202;-64
2023/07/11 02:52:07;;;;;;;15.50;14.20;;;;;;;16.87;100.00;97167.56;4960040;28;20245;-63
2023/07/11 02:54:36;;;;;;;15.67;14.27;;;;;;;16.86;100.00;97160.56;4962676;28;20222;-65
2023/07/11 02:57:06;;;;;;;16.80;15.20;;;;;;;16.84;100.00;97156.47;4962883;28;20241;-63
2023/07/11 02:59:34;;;;;;;16.30;14.90;;;;;;;16.81;100.00;97156.91;4961288;28;20233;-62
2023/07/11 03:02:02;;;;;;;15.90;14.70;;;;;;;16.83;100.00;97160.19;4953476;28;20214;-64
2023/07/11 03:04:30;;;;;;;15.07;13.93;;;;;;;16.81;100.00;97156.91;4960245;28;20238;-63
2023/07/11 03:06:59;;;;;;;15.73;14.33;;;;;;;16.71;100.00;97158.28;4958065;28;20269;-63
2023/07/11 03:09:28;;;;;;;16.37;14.97;;;;;;;16.70;100.00;97161.19;4964992;28;20249;-63
2023/07/11 03:11:55;;;;;;;16.10;14.73;;;;;;;16.70;100.00;97164.66;4958848;28;20387;-62
2023/07/11 03:14:23;;;;;;;17.37;15.77;;;;;;;16.69;100.00;97163.03;4958955;28;20270;-64
2023/07/11 03:16:51;;;;;;;16.53;15.17;;;;;;;16.69;100.00;97164.91;4954331;28;20210;-62
2023/07/11 03:19:21;;;;;;;15.83;14.47;;;;;;;16.68;100.00;97166.75;4958058;28;20265;-63
2023/07/11 03:21:49;;;;;;;16.67;15.43;;;;;;;16.61;100.00;97164.13;4958104;28;20306;-63
2023/07/11 03:24:18;;;;;;;17.23;15.80;;;;;;;16.62;100.00;97164.97;4958464;28;20233;-63
2023/07/11 03:26:46;;;;;;;17.17;15.77;;;;;;;16.59;100.00;97155.53;4961807;28;20214;-64
2023/07/11 03:29:15;;;;;;;16.07;14.77;;;;;;;16.55;100.00;97159.69;4958880;28;20206;-63
2023/07/11 03:31:43;;;;;;;17.17;15.57;;;;;;;16.55;100.00;97157.00;4955716;28;20617;-62
2023/07/11 03:34:11;;;;;;;17.40;15.60;;;;;;;16.55;100.00;97159.69;4955084;28;20227;-63
2023/07/11 03:36:40;;;;;;;17.03;15.43;;;;;;;16.47;100.00;97152.78;4957756;28;20206;-64
2023/07/11 03:39:08;;;;;;;16.50;15.00;;;;;;;16.52;100.00;97156.66;4961412;28;20298;-63
2023/07/11 03:41:37;;;;;;;16.27;14.97;;;;;;;16.55;100.00;97158.88;4962018;28;20301;-64
2023/07/11 03:44:04;;;;;;;16.77;15.37;;;;;;;16.53;100.00;97161.78;4959930;28;20709;-62
2023/07/11 03:46:32;;;;;;;16.37;15.07;;;;;;;16.59;100.00;97163.53;4957458;28;20249;-64
2023/07/11 03:49:01;;;;;;;15.77;14.37;;;;;;;16.58;100.00;97159.25;4950433;28;20738;-63
2023/07/11 03:51:29;;;;;;;17.73;16.10;;;;;;;16.60;100.00;97159.03;4957242;28;20312;-62
2023/07/11 03:53:56;;;;;;;16.10;14.90;;;;;;;16.61;100.00;97166.00;4957776;28;20245;-63
2023/07/11 03:56:24;;;;;;;17.03;15.67;;;;;;;16.68;100.00;97168.63;4957050;28;20217;-64
2023/07/11 03:58:54;;;;;;;18.57;16.87;;;;;;;16.65;100.00;97161.84;4962108;28;20226;-64
2023/07/11 04:01:22;;;;;;;17.97;16.47;;;;;;;16.64;100.00;97163.69;4960712;28;20240;-62
2023/07/11 04:03:49;;;;;;;18.90;17.00;;;;;;;16.71;100.00;97163.63;4956183;28;20222;-64
2023/07/11 04:06:17;;;;;;;17.23;15.83;;;;;;;16.71;100.00;97166.31;4956158;28;20589;-65
2023/07/11 04:08:46;;;;;;;18.57;17.00;;;;;;;16.70;100.00;97172.69;4960574;28;20220;-64
2023/07/11 04:11:14;;;;;;;17.07;15.70;;;;;;;16.72;100.00;97161.78;4961577;28;20222;-65
2023/07/11 04:13:42;;;;;;;18.37;16.57;;;;;;;16.79;100.00;97171.34;4958892;28;20895;-63
2023/07/11 04:16:11;;;;;;;19.27;17.60;;;;;;;16.89;100.00;97167.34;4957913;28;20218;-63
2023/07/11 04:18:38;;;;;;;19.57;17.77;;;;;;;16.90;100.00;97166.28;4956010;28;20233;-63
2023/07/11 04:21:06;;;;;;;19.03;17.47;;;;;;;16.89;100.00;97154.75;4957578;28;20221;-62
2023/07/11 04:23:34;;;;;;;19.90;18.03;;;;;;;16.98;100.00;97157.97;4959035;28;20261;-63
2023/07/11 04:26:01;;;;;;;17.83;16.33;;;;;;;17.06;100.00;97157.66;4963037;28;20273;-63
2023/07/11 04:28:30;;;;;;;19.40;17.73;;;;;;;17.13;100.00;97159.44;4960880;28;20293;-67
2023/07/11 04:30:57;;;;;;;20.10;18.40;;;;;;;17.23;100.00;97157.00;4954201;28;20730;-66
2023/07/11 04:33:26;;;;;;;18.23;16.83;;;;;;;17.29;100.00;97157.97;4957706;28;20301;-65
2023/07/11 04:35:54;;;;;;;17.77;16.40;;;;;;;17.40;100.00;97157.19;4954081;28;20245;-65
2023/07/11 04:38:22;;;;;;;18.00;16.30;;;;;;;17.49;100.00;97155.84;4961829;28;20211;-64
2023/07/11 04:40:50;;;;;;;19.03;17.47;;;;;;;17.58;100.00;97161.66;4960185;28;20293;-65
2023/07/11 04:43:17;;;;;;;17.23;15.83;;;;;;;17.61;100.00;97166.56;4961382;28;20297;-64
2023/07/11 04:45:45;;;;;;;17.87;16.37;;;;;;;17.62;100.00;97160.19;4958861;28;20652;-65
2023/07/11 04:48:12;;;;;;;17.87;16.17;;;;;;;17.83;100.00;97157.19;4955273;28;20210;-66
2023/07/11 04:50:42;;;;;;;18.03;16.43;;;;;;;17.95;100.00;97160.69;4956931;28;20210;-66
2023/07/11 04:53:09;;;;;;;17.67;16.17;;;;;;;17.97;100.00;97158.59;4956622;28;20225;-65
2023/07/11 04:55:38;;;;;;;19.03;17.33;;;;;;;18.04;100.00;97143.22;4957241;28;20240;-66
2023/07/11 04:58:05;;;;;;;18.63;17.07;;;;;;;18.14;100.00;97160.59;4957992;28;20230;-65
2023/07/11 05:00:33;;;;;;;19.27;17.67;;;;;;;18.26;100.00;97155.22;4960202;28;20269;-66
2023/07/11 05:03:00;;;;;;;17.07;15.77;;;;;;;18.42;100.00;97148.34;4957464;28;20198;-64
2023/07/11 05:05:28;;;;;;;18.13;16.47;;;;;;;18.52;100.00;97154.75;4952299;28;20234;-66
2023/07/11 05:07:57;;;;;;;19.00;17.30;;;;;;;18.58;100.00;97141.44;4958875;28;20206;-66
2023/07/11 05:10:24;;;;;;;18.73;17.03;;;;;;;18.70;100.00;97149.47;4961336;28;20241;-64
2023/07/11 05:12:52;;;;;;;17.30;15.90;;;;;;;18.84;100.00;97148.13;4957836;28;20290;-65
2023/07/11 05:15:20;;;;;;;17.60;16.10;;;;;;;19.00;100.00;97149.28;4956873;28;20717;-65
2023/07/11 05:17:47;;;;;;;16.97;15.57;;;;;;;19.07;100.00;97149.13;4964342;28;20206;-64
2023/07/11 05:20:15;;;;;;;17.27;15.87;;;;;;;19.28;100.00;97136.91;4959913;28;20336;-65
2023/07/11 05:22:43;;;;;;;17.17;15.77;;;;;;;19.53;100.00;97139.22;4962823;28;20241;-65
2023/07/11 05:25:12;;;;;;;17.87;16.40;;;;;;;19.70;100.00;97134.91;4962231;28;20534;-66
2023/07/11 05:27:40;;;;;;;16.17;14.70;;;;;;;19.81;100.00;97136.69;4964822;28;20236;-65
2023/07/11 05:30:09;;;;;;;16.37;15.13;;;;;;;19.85;100.00;97132.44;4963142;28;20309;-64
2023/07/11 05:32:37;;;;;;;16.27;14.93;;;;;;;19.93;100.00;97133.94;4956663;28;20230;-65
2023/07/11 05:35:05;;;;;;;17.73;16.23;;;;;;;20.02;100.00;97132.47;4956801;28;20265;-65
2023/07/11 05:37:33;;;;;;;16.57;15.17;;;;;;;20.19;100.00;97126.25;4962696;28;20293;-65
2023/07/11 05:40:00;;;;;;;16.73;15.33;;;;;;;20.21;100.00;97130.31;4964374;28;21776;-65
2023/07/11 05:42:29;;;;;;;16.83;15.23;;;;;;;20.24;100.00;97129.81;4964660;28;20290;-64
2023/07/11 05:44:57;;;;;;;16.70;15.30;;;;;;;20.41;100.00;97128.16;4959101;28;20820;-64
2023/07/11 05:47:24;;;;;;;16.63;15.23;;;;;;;20.68;100.00;97122.88;4961017;28;20605;-64
2023/07/11 05:49:52;;;;;;;15.57;14.47;;;;;;;20.82;100.00;97126.00;4962439;28;20401;-65
2023/07/11 05:52:19;;;;;;;15.70;14.50;;;;;;;20.90;100.00;97125.56;4958304;28;20252;-64
2023/07/11 05:54:47;;;;;;;15.30;14.20;;;;;;;21.07;100.00;97121.97;4959800;28;20769;-64
2023/07/11 05:57:15;;;;;;;15.07;13.77;;;;;;;21.25;100.00;97123.50;4960213;28;20210;-67
2023/07/11 05:59:44;;;;;;;16.00;14.63;;;;;;;21.20;100.00;97120.75;4964992;28;20285;-66
2023/07/11 06:02:11;;;;;;;16.50;15.03;;;;;;;21.41;100.00;97119.06;4964669;28;20563;-66
2023/07/11 06:04:39;;;;;;;16.27;14.93;;;;;;;21.36;100.00;97109.03;4957199;28;20293;-65
2023/07/11 06:07:07;;;;;;;15.73;14.43;;;;;;;21.62;100.00;97128.13;4955533;28;21023;-65
2023/07/11 06:09:34;;;;;;;14.47;13.37;;;;;;;21.66;100.00;97123.88;4963640;28;20242;-66
2023/07/11 06:12:02;;;;;;;14.70;13.40;;;;;;;21.98;100.00;97122.25;4962402;28;20703;-65
2023/07/11 06:14:30;;;;;;;15.17;13.73;;;;;;;22.20;100.00;97123.97;4963056;28;20706;-66
2023/07/11 06:16:59;;;;;;;14.67;13.37;;;;;;;22.31;100.00;97120.25;4956854;28;20210;-67
2023/07/11 06:19:27;;;;;;;14.00;12.90;;;;;;;22.66;100.00;97124.22;4963676;28;20206;-65
2023/07/11 06:21:55;;;;;;;14.43;13.27;;;;;;;22.95;100.00;97123.00;4959157;28;20684;-65
2023/07/11 06:24:23;;;;;;;14.40;13.10;;;;;;;23.12;100.00;97118.16;4962631;28;20226;-66
2023/07/11 06:26:50;;;;;;;14.00;12.87;;;;;;;23.29;100.00;97111.72;4965020;28;20238;-65
2023/07/11 06:29:18;;;;;;;14.23;13.10;;;;;;;23.19;100.00;97112.53;4965765;28;20207;-65
2023/07/11 06:31:46;;;;;;;14.53;13.43;;;;;;;23.22;100.00;97109.28;4956072;28;20202;-66
2023/07/11 06:34:15;;;;;;;15.17;13.70;;;;;;;23.26;100.00;97106.88;4955185;28;20656;-67
2023/07/11 06:36:42;;;;;;;15.50;14.07;;;;;;;22.96;100.00;97109.22;4962285;28;20588;-66
2023/07/11 06:39:10;;;;;;;14.97;13.67;;;;;;;23.42;100.00;97100.41;4962404;28;20502;-65
2023/07/11 06:41:38;;;;;;;14.40;13.20;;;;;;;23.60;100.00;97103.63;4963571;28;21548;-65
2023/07/11 06:44:08;;;;;;;15.87;14.57;;;;;;;23.78;100.00;97104.19;4962141;28;20334;-65
2023/07/11 06:46:36;;;;;;;15.30;14.03;;;;;;;23.91;100.00;97100.13;4957594;28;20222;-65
2023/07/11 06:49:04;;;;;;;15.73;14.53;;;;;;;23.69;100.00;97099.34;4955762;28;20296;-65
2023/07/11 06:51:33;;;;;;;15.23;13.83;;;;;;;23.94;100.00;97113.91;4961378;28;20247;-65
2023/07/11 06:54:01;;;;;;;15.50;14.13;;;;;;;24.18;100.00;97113.34;4964947;28;20288;-65
2023/07/11 06:56:28;;;;;;;16.10;14.90;;;;;;;24.24;100.00;97111.44;4963108;28;20242;-66
2023/07/11 06:58:56;;;;;;;20.77;19.00;;;;;;;24.25;100.00;97115.78;4958513;28;20237;-65
2023/07/11 07:01:23;;;;;;;16.53;14.93;;;;;;;24.28;100.00;97110.63;4960682;28;20296;-66
2023/07/11 07:04:04;;;;;;;16.13;14.83;;;;;;;24.30;100.00;97112.25;4960221;28;20317;-66
2023/07/11 07:06:35;;;;;;;15.77;14.43;;;;;;;24.41;100.00;97116.53;4957826;28;20218;-66
2023/07/11 07:09:04;;;;;;;17.03;15.50;;;;;;;24.50;100.00;97120.31;4961219;28;20225;-64
2023/07/11 07:11:31;;;;;;;14.03;12.93;;;;;;;24.59;100.00;97108.91;4968743;28;20306;-65
2023/07/11 07:13:59;;;;;;;13.80;12.80;;;;;;;24.79;100.00;97108.81;4961871;28;20801;-65
2023/07/11 07:16:33;;;;;;;12.77;11.80;;;;;;;25.08;100.00;97104.63;4962695;28;20681;-65
2023/07/11 07:19:01;;;;;;;13.43;12.13;;;;;;;25.20;100.00;97104.28;4956527;28;20752;-65
2023/07/11 07:21:29;;;;;;;13.40;12.23;;;;;;;25.39;100.00;97101.72;4958434;28;20230;-66
2023/07/11 07:23:59;;;;;;;13.17;11.77;;;;;;;25.40;100.00;97100.63;4962001;28;20249;-66
2023/07/11 07:26:27;;;;;;;12.97;11.73;;;;;;;25.13;100.00;97091.84;4966418;28;20216;-64
2023/07/11 07:28:54;;;;;;;10.93;10.10;;;;;;;24.93;100.00;97095.47;4959631;28;20206;-66
2023/07/11 07:31:23;;;;;;;12.50;11.53;;;;;;;25.08;100.00;97093.78;4957442;28;20210;-65
2023/07/11 07:33:51;;;;;;;13.00;11.77;;;;;;;25.11;100.00;97094.03;4962434;28;20228;-65
2023/07/11 07:36:19;;;;;;;13.47;12.37;;;;;;;25.52;100.00;97094.84;4958009;28;20203;-65
2023/07/11 07:38:47;;;;;;;12.43;11.53;;;;;;;25.52;100.00;97094.84;4961657;28;20310;-64
2023/07/11 07:41:16;;;;;;;11.97;10.87;;;;;;;25.42;100.00;97098.44;4961598;28;20725;-65
2023/07/11 07:43:44;;;;;;;15.63;14.33;;;;;;;25.70;96.83;97096.88;4963878;28;20277;-66
2023/07/11 07:46:13;;;;;;;13.13;12.03;;;;;;;25.79;96.47;97107.94;4953212;28;20469;-65
2023/07/11 07:48:41;;;;;;;12.07;11.10;;;;;;;25.88;96.79;97099.16;4961069;28;20577;-64
2023/07/11 07:51:11;;;;;;;12.50;11.53;;;;;;;26.22;99.07;97098.31;4955127;28;20241;-64
2023/07/11 07:53:39;;;;;;;11.97;10.93;;;;;;;26.15;97.22;97104.91;4960511;28;20226;-65
2023/07/11 07:56:10;;;;;;;10.80;10.10;;;;;;;26.20;94.41;97098.59;4961314;28;20237;-65
2023/07/11 07:58:45;;;;;;;12.43;11.57;;;;;;;26.37;97.34;97092.69;5093959;27;20590;-67
2023/07/11 08:01:14;;;;;;;11.47;10.57;;;;;;;26.21;98.41;97102.91;5073900;28;20198;-65
2023/07/11 08:03:42;;;;;;;12.27;11.37;;;;;;;26.32;96.59;97095.47;5076158;28;20224;-64
2023/07/11 08:06:11;;;;;;;12.37;11.43;;;;;;;26.52;98.86;97096.34;5047607;28;20200;-65
2023/07/11 08:08:44;;;;;;;11.83;10.67;;;;;;;26.58;95.03;97095.97;5052113;28;20200;-64
2023/07/11 08:11:12;;;;;;;12.20;11.17;;;;;;;26.65;94.47;97092.91;5055104;28;20203;-64
2023/07/11 08:13:39;;;;;;;11.03;10.23;;;;;;;26.67;91.57;97085.28;5049122;28;20220;-68
2023/07/11 08:16:28;;;;;;;11.63;10.77;;;;;;;27.27;93.10;97088.56;5048538;28;20253;-68
2023/07/11 08:19:04;;;;;;;12.17;11.10;;;;;;;27.12;90.37;97076.00;5045099;28;20215;-63
2023/07/11 08:21:33;;;;;;;12.20;11.30;;;;;;;27.49;87.80;97081.72;5048289;28;20913;-65
2023/07/11 08:24:00;;;;;;;11.93;10.77;;;;;;;27.61;84.27;97079.34;5051273;28;20602;-63
2023/07/11 08:26:28;;;;;;;11.90;10.90;;;;;;;27.69;81.74;97069.69;5053172;28;20231;-65
2023/07/11 08:28:56;;;;;;;12.40;11.30;;;;;;;27.63;88.78;97076.31;5050135;28;20400;-65
2023/07/11 08:31:24;;;;;;;12.73;11.53;;;;;;;27.38;80.41;97070.97;5044963;28;20941;-65
2023/07/11 08:33:53;;;;;;;11.00;10.10;;;;;;;27.55;82.34;97069.66;5050502;28;20222;-66
2023/07/11 08:36:21;;;;;;;10.80;9.80;;;;;;;27.84;78.47;97058.53;5047868;28;20216;-65
2023/07/11 08:38:48;;;;;;;10.50;9.70;;;;;;;27.90;72.93;97064.69;5059579;28;20719;-64
2023/07/11 08:41:25;;;;;;;9.10;8.40;;;;;;;27.97;70.55;97069.72;5054421;28;21769;-67
2023/07/11 08:43:55;;;;;;;9.30;8.60;;;;;;;28.13;67.73;97059.38;5047231;28;20276;-64
2023/07/11 08:46:23;;;;;;;8.47;7.80;;;;;;;28.06;63.38;97053.50;5048490;28;20290;-65
2023/07/11 08:48:54;;;;;;;8.20;7.60;;;;;;;27.94;62.42;97052.09;5050318;28;20554;-65
2023/07/11 08:51:26;;;;;;;7.90;7.40;;;;;;;27.83;53.54;97053.38;5047871;28;20219;-65
2023/07/11 08:53:57;;;;;;;6.93;6.43;;;;;;;27.87;59.18;97052.50;5050894;28;20659;-65
2023/07/11 08:56:36;;;;;;;7.93;7.23;;;;;;;27.79;57.89;97046.91;5042799;28;20729;-64
2023/07/11 08:59:13;;;;;;;7.20;6.60;;;;;;;27.83;59.43;97051.47;5046453;28;20342;-64
2023/07/11 09:01:45;;;;;;;6.97;6.47;;;;;;;28.17;60.26;97054.94;5057079;28;20241;-64
2023/07/11 09:04:17;;;;;;;6.10;5.70;;;;;;;28.28;57.01;97052.84;5048650;28;20930;-64
2023/07/11 09:06:53;;;;;;;6.67;6.17;;;;;;;28.53;58.34;97048.78;5046230;28;20207;-66
2023/07/11 09:09:20;;;;;;;8.33;7.60;;;;;;;28.20;57.93;97046.19;5039371;28;20736;-64
2023/07/11 09:11:58;;;;;;;7.40;6.70;;;;;;;28.31;59.12;97039.44;5039948;28;20214;-64
2023/07/11 09:14:33;;;;;;;7.23;6.57;;;;;;;28.41;59.11;97037.59;5038342;28;20761;-65
2023/07/11 09:17:07;;;;;;;8.27;7.57;;;;;;;28.30;59.25;97032.38;5035451;28;20226;-65
2023/07/11 09:19:49;;;;;;;7.00;6.50;;;;;;;28.40;57.98;97019.66;5036600;28;20203;-65
2023/07/11 09:22:22;;;;;;;7.13;6.43;;;;;;;28.39;56.06;97021.56;5030282;28;20234;-66
2023/07/11 09:25:05;;;;;;;7.27;6.67;;;;;;;28.20;56.64;97020.88;5038078;28;20930;-64
2023/07/11 09:27:35;;;;;;;7.10;6.60;;;;;;;28.39;55.95;97015.31;5036883;28;20618;-64
2023/07/11 09:30:14;;;;;;;7.30;6.70;;;;;;;28.30;57.18;97013.31;5032149;28;20816;-65
2023/07/11 09:32:42;;;;;;;7.27;6.70;;;;;;;28.34;58.25;97004.53;5037642;28;20706;-64
2023/07/11 09:35:23;;;;;;;6.70;5.93;;;;;;;28.60;56.24;97008.31;5033978;28;20310;-68
2023/07/11 09:37:56;;;;;;;6.43;5.93;;;;;;;28.81;56.08;97005.16;5036248;28;20220;-64
2023/07/11 09:40:31;;;;;;;6.83;6.23;;;;;;;29.00;56.32;97006.91;5041389;28;20244;-64
2023/07/11 09:42:59;;;;;;;6.30;5.90;;;;;;;29.02;56.44;96997.28;5039549;28;20750;-66
2023/07/11 09:45:34;;;;;;;8.57;7.83;;;;;;;29.23;55.27;97001.44;5032240;28;20302;-64
2023/07/11 09:48:08;;;;;;;7.07;6.57;;;;;;;28.97;53.46;97004.78;5037583;28;20253;-64
2023/07/11 09:50:49;;;;;;;6.93;6.43;;;;;;;29.15;55.12;97003.00;5031796;28;20645;-66
2023/07/11 09:53:37;;;;;;;7.13;6.53;;;;;;;29.32;55.86;97003.13;5033783;28;20220;-65
2023/07/11 09:56:10;;;;;;;6.97;6.47;;;;;;;29.26;55.26;97000.81;5041106;28;20294;-64
2023/07/11 09:58:41;;;;;;;10.53;7.00;;;;;;;29.00;53.30;96988.63;5036543;28;20679;-64
2023/07/11 10:01:17;;;;;;;6.57;6.17;;;;;;;29.07;54.36;96981.91;5036233;28;20213;-64
2023/07/11 10:03:47;;;;;;;8.23;6.80;;;;;;;29.27;54.14;96984.16;5042541;28;20220;-65
2023/07/11 10:06:29;;;;;;;7.27;6.73;;;;;;;29.33;54.65;96984.81;5030564;28;20724;-66
2023/07/11 10:09:22;;;;;;;7.57;7.03;;;;;;;29.47;55.29;96982.03;5038590;28;20204;-65
2023/07/11 10:11:58;;;;;;;7.10;6.50;;;;;;;29.62;55.31;96975.38;5039076;28;20210;-64
2023/07/11 10:14:29;;;;;;;6.73;6.23;;;;;;;29.88;52.72;96972.75;5034491;28;20294;-64
2023/07/11 10:16:57;;;;;;;7.10;6.60;;;;;;;30.02;52.91;96967.19;5033124;28;20207;-64
2023/07/11 10:19:27;;;;;;;8.03;7.20;;;;;;;30.28;52.35;96968.38;5033125;28;20625;-63
2023/07/11 10:22:00;;;;;;;8.53;6.60;;;;;;;30.32;54.01;96966.66;5035577;28;20305;-66
2023/07/11 10:24:35;;;;;;;7.57;6.97;;;;;;;30.40;52.90;96970.50;5039983;28;20226;-65
2023/07/11 10:27:07;;;;;;;8.17;7.43;;;;;;;30.08;50.47;96961.59;5034834;28;20322;-64
2023/07/11 10:29:40;;;;;;;7.67;7.17;;;;;;;30.24;53.61;96956.50;5028682;28;20204;-66
2023/07/11 10:32:12;;;;;;;8.00;7.40;;;;;;;30.34;51.74;96956.19;5038087;28;20290;-63
2023/07/11 10:34:44;;;;;;;7.90;7.20;;;;;;;30.21;50.31;96957.94;5038773;28;20223;-63
2023/07/11 10:37:18;;;;;;;7.57;6.80;;;;;;;29.85;50.58;96954.28;5029906;28;20210;-65
2023/07/11 10:39:50;;;;;;;8.23;7.63;;;;;;;30.10;50.78;96929.28;5037794;28;20223;-64
2023/07/11 10:42:27;;;;;;;7.43;6.83;;;;;;;30.45;53.19;96945.75;5040011;28;20234;-66
2023/07/11 10:45:03;;;;;;;7.10;6.47;;;;;;;30.36;51.54;96943.03;5035564;28;20980;-65
2023/07/11 10:47:34;;;;;;;6.97;6.47;;;;;;;30.53;51.61;96939.50;5032487;28;20602;-66
2023/07/11 10:50:06;;;;;;;8.20;7.50;;;;;;;30.20;49.42;96939.94;5031572;28;20234;-65
2023/07/11 10:52:36;;;;;;;8.43;7.50;;;;;;;30.42;50.98;96935.47;5028716;28;20208;-64
2023/07/11 10:55:11;;;;;;;7.63;7.03;;;;;;;30.65;51.46;96927.16;5037082;28;20626;-65
2023/07/11 10:57:40;;;;;;;10.73;7.80;;;;;;;30.67;48.71;96927.63;5036527;28;20811;-65
2023/07/11 11:00:16;;;;;;;8.33;7.63;;;;;;;30.77;51.07;96929.22;5032189;28;20819;-64
2023/07/11 11:02:52;;;;;;;8.10;7.30;;;;;;;30.56;50.43;96929.84;5031380;28;22022;-64
2023/07/11 11:05:25;;;;;;;10.90;7.13;;;;;;;30.74;50.50;96923.28;5033364;28;20251;-64
2023/07/11 11:07:57;;;;;;;8.73;7.90;;;;;;;30.78;49.28;96912.50;5033425;28;20210;-66
2023/07/11 11:10:33;;;;;;;7.83;7.10;;;;;;;30.97;50.31;96905.88;5035576;28;20379;-65
2023/07/11 11:13:07;;;;;;;7.73;7.23;;;;;;;30.93;50.40;96905.72;5033026;28;20253;-65
2023/07/11 11:15:45;;;;;;;8.20;7.40;;;;;;;31.07;51.68;96899.28;5034108;28;20894;-65
2023/07/11 11:18:24;;;;;;;9.63;7.40;;;;;;;30.97;52.74;96889.47;5027617;28;20231;-65
2023/07/11 11:21:01;;;;;;;8.87;8.07;;;;;;;31.08;50.94;96890.72;5031106;28;20624;-65
2023/07/11 11:23:59;;;;;;;7.73;7.23;;;;;;;31.09;48.95;96886.84;5036630;28;20342;-65
2023/07/11 11:26:33;;;;;;;8.23;7.50;;;;;;;31.09;50.30;96886.06;5036771;28;22147;-65